This is the latest recevied weather packets stored in our database for station/object OM6ABF-11. If no packets are shown the sender has not sent any weather packets the latest 10 day(s).
| Time | Temp. | Humidity | Pressure | Rain* | Wind** | Luminosity | Snow |
|---|---|---|---|---|---|---|---|
| 1777305531 | 17.78° C | 24% | 1020.4 hPa | - | - | - | - |
| 1777304631 | 18.33° C | 23% | 1020.6 hPa | - | - | - | - |
| 1777303731 | 16.67° C | 25% | 1020.7 hPa | - | - | - | - |
| 1777302831 | 16.67° C | 24% | 1020.8 hPa | - | - | - | - |
| 1777301933 | 18.33° C | 22% | 1021 hPa | - | - | - | - |
| 1777301034 | 17.78° C | 22% | 1020.9 hPa | - | - | - | - |
| 1777300137 | 20.56° C | 19% | 1021.2 hPa | - | - | - | - |
| 1777299237 | 17.22° C | 22% | 1021.4 hPa | - | - | - | - |
| 1777298337 | 18.89° C | 20% | 1021.2 hPa | - | - | - | - |
| 1777297437 | 18.33° C | 22% | 1021.4 hPa | - | - | - | - |
| 1777296538 | 18.89° C | 20% | 1021.5 hPa | - | - | - | - |
| 1777295639 | 18.89° C | 22% | 1021.7 hPa | - | - | - | - |
| 1777294740 | 18.89° C | 19% | 1021.9 hPa | - | - | - | - |
| 1777293841 | 17.22° C | 20% | 1022.1 hPa | - | - | - | - |
| 1777292942 | 18.89° C | 18% | 1022 hPa | - | - | - | - |
| 1777292043 | 18.33° C | 20% | 1022.2 hPa | - | - | - | - |
| 1777291144 | 16.67° C | 24% | 1022.5 hPa | - | - | - | - |
| 1777290242 | 15.56° C | 25% | 1022.7 hPa | - | - | - | - |
| 1777289342 | 17.22° C | 24% | 1022.8 hPa | - | - | - | - |
| 1777288442 | 17.22° C | 24% | 1023 hPa | - | - | - | - |
| 1777287542 | 17.78° C | 24% | 1023.2 hPa | - | - | - | - |
| 1777286642 | 15.56° C | 27% | 1023.3 hPa | - | - | - | - |
| 1777285743 | 13.89° C | 28% | 1023.5 hPa | - | - | - | - |
| 1777284842 | 15.56° C | 26% | 1023.7 hPa | - | - | - | - |
| 1777283942 | 15° C | 27% | 1023.8 hPa | - | - | - | - |
* Rain since midnight (hover to see other rain measurements)
** Current wind speed in m/s (hover to see current wind gust speed)